sensor_id;sensor_type;location;lat;lon;timestamp;P1;P2;P0
77239;PMS7003;66258;53.170;-2.240;2024-03-22T00:00:36;23.50;23.50;15.50
77239;PMS7003;66258;53.170;-2.240;2024-03-22T00:03:03;0.25;0.25;0.25
77239;PMS7003;66258;53.170;-2.240;2024-03-22T00:05:30;31.00;30.25;22.00
77239;PMS7003;66258;53.170;-2.240;2024-03-22T00:07:56;19.25;19.25;11.25
77239;PMS7003;66258;53.170;-2.240;2024-03-22T00:10:22;20.33;19.33;12.00
77239;PMS7003;66258;53.170;-2.240;2024-03-22T00:12:48;0.80;0.00;0.00
77239;PMS7003;66258;53.170;-2.240;2024-03-22T00:15:16;3.00;2.00;1.00
77239;PMS7003;66258;53.170;-2.240;2024-03-22T00:17:42;12.00;12.00;4.25
77239;PMS7003;66258;53.170;-2.240;2024-03-22T00:20:10;0.00;0.00;0.00
77239;PMS7003;66258;53.170;-2.240;2024-03-22T00:22:36;9.00;9.00;1.25
77239;PMS7003;66258;53.170;-2.240;2024-03-22T00:25:03;13.25;13.25;5.75
77239;PMS7003;66258;53.170;-2.240;2024-03-22T00:27:30;10.25;10.25;3.00
77239;PMS7003;66258;53.170;-2.240;2024-03-22T00:29:56;12.75;12.75;5.25
77239;PMS7003;66258;53.170;-2.240;2024-03-22T00:32:23;6.00;6.00;0.00
77239;PMS7003;66258;53.170;-2.240;2024-03-22T00:34:49;13.50;13.50;6.50
77239;PMS7003;66258;53.170;-2.240;2024-03-22T00:37:15;24.25;19.50;10.50
77239;PMS7003;66258;53.170;-2.240;2024-03-22T00:39:41;0.00;0.00;0.00
77239;PMS7003;66258;53.170;-2.240;2024-03-22T00:42:08;3.50;3.50;3.00
77239;PMS7003;66258;53.170;-2.240;2024-03-22T00:44:34;12.00;10.00;2.25
77239;PMS7003;66258;53.170;-2.240;2024-03-22T00:47:00;5.50;5.50;0.00
77239;PMS7003;66258;53.170;-2.240;2024-03-22T00:49:27;14.50;14.50;7.00
77239;PMS7003;66258;53.170;-2.240;2024-03-22T00:51:53;0.80;0.40;0.40
77239;PMS7003;66258;53.170;-2.240;2024-03-22T00:54:19;20.67;20.67;13.33
77239;PMS7003;66258;53.170;-2.240;2024-03-22T00:56:45;1.40;1.40;1.40
77239;PMS7003;66258;53.170;-2.240;2024-03-22T00:59:12;6.00;6.00;0.00
77239;PMS7003;66258;53.170;-2.240;2024-03-22T01:01:38;13.40;13.40;5.60
77239;PMS7003;66258;53.170;-2.240;2024-03-22T01:04:04;23.50;23.25;15.00
77239;PMS7003;66258;53.170;-2.240;2024-03-22T01:06:32;0.00;0.00;0.00
77239;PMS7003;66258;53.170;-2.240;2024-03-22T01:08:58;2.00;2.00;1.20
77239;PMS7003;66258;53.170;-2.240;2024-03-22T01:11:24;6.00;4.75;4.50
77239;PMS7003;66258;53.170;-2.240;2024-03-22T01:13:50;67.25;46.00;25.25
77239;PMS7003;66258;53.170;-2.240;2024-03-22T01:16:16;333.20;123.60;25.60
77239;PMS7003;66258;53.170;-2.240;2024-03-22T01:18:43;44.00;34.33;25.00
77239;PMS7003;66258;53.170;-2.240;2024-03-22T01:21:09;24.50;24.50;15.75
77239;PMS7003;66258;53.170;-2.240;2024-03-22T01:23:36;1.33;1.33;0.67
77239;PMS7003;66258;53.170;-2.240;2024-03-22T01:26:02;62.00;48.75;34.25
77239;PMS7003;66258;53.170;-2.240;2024-03-22T01:28:29;616.00;611.75;605.75
77239;PMS7003;66258;53.170;-2.240;2024-03-22T01:30:55;0.00;0.00;0.00
77239;PMS7003;66258;53.170;-2.240;2024-03-22T01:33:21;13.50;13.00;9.25
77239;PMS7003;66258;53.170;-2.240;2024-03-22T01:35:47;274.00;271.25;261.75
77239;PMS7003;66258;53.170;-2.240;2024-03-22T01:38:13;10.75;8.75;6.50
77239;PMS7003;66258;53.170;-2.240;2024-03-22T01:40:41;9.60;6.20;6.00
77239;PMS7003;66258;53.170;-2.240;2024-03-22T01:43:07;18.50;16.50;8.75
77239;PMS7003;66258;53.170;-2.240;2024-03-22T01:45:33;14.75;14.75;10.00
77239;PMS7003;66258;53.170;-2.240;2024-03-22T01:47:59;11.40;11.40;4.60
77239;PMS7003;66258;53.170;-2.240;2024-03-22T01:50:26;13.60;10.20;9.00
77239;PMS7003;66258;53.170;-2.240;2024-03-22T01:52:53;11.00;11.00;8.25
77239;PMS7003;66258;53.170;-2.240;2024-03-22T01:55:19;8.00;8.00;2.50
77239;PMS7003;66258;53.170;-2.240;2024-03-22T01:57:47;15.00;15.00;12.00
77239;PMS7003;66258;53.170;-2.240;2024-03-22T02:00:14;62.80;50.40;28.20
77239;PMS7003;66258;53.170;-2.240;2024-03-22T02:02:41;40.25;33.50;25.25
77239;PMS7003;66258;53.170;-2.240;2024-03-22T02:05:13;131.20;97.40;65.00
77239;PMS7003;66258;53.170;-2.240;2024-03-22T02:07:39;220.75;210.75;200.25
77239;PMS7003;66258;53.170;-2.240;2024-03-22T02:10:06;10.25;10.25;7.75
77239;PMS7003;66258;53.170;-2.240;2024-03-22T02:12:32;4.50;3.75;3.50
77239;PMS7003;66258;53.170;-2.240;2024-03-22T02:15:00;69.80;58.80;42.60
77239;PMS7003;66258;53.170;-2.240;2024-03-22T02:17:27;183.50;179.50;174.25
77239;PMS7003;66258;53.170;-2.240;2024-03-22T02:19:53;211.80;207.00;174.00
77239;PMS7003;66258;53.170;-2.240;2024-03-22T02:22:19;15.25;14.25;11.50
77239;PMS7003;66258;53.170;-2.240;2024-03-22T02:24:47;17.60;17.60;9.00
77239;PMS7003;66258;53.170;-2.240;2024-03-22T02:27:13;92.80;92.00;46.00
77239;PMS7003;66258;53.170;-2.240;2024-03-22T02:29:39;53.20;43.20;24.60
77239;PMS7003;66258;53.170;-2.240;2024-03-22T02:32:06;55.00;41.75;15.25
77239;PMS7003;66258;53.170;-2.240;2024-03-22T02:34:32;183.00;178.00;175.25
77239;PMS7003;66258;53.170;-2.240;2024-03-22T02:36:58;0.80;0.00;0.00
77239;PMS7003;66258;53.170;-2.240;2024-03-22T02:39:24;4.40;4.40;1.00
77239;PMS7003;66258;53.170;-2.240;2024-03-22T02:41:52;10.00;8.67;2.00
77239;PMS7003;66258;53.170;-2.240;2024-03-22T02:44:18;86.25;86.25;86.25
77239;PMS7003;66258;53.170;-2.240;2024-03-22T02:46:44;1.80;1.80;0.00
77239;PMS7003;66258;53.170;-2.240;2024-03-22T02:49:10;5.60;5.20;3.20
77239;PMS7003;66258;53.170;-2.240;2024-03-22T02:51:36;9.00;9.00;0.00
77239;PMS7003;66258;53.170;-2.240;2024-03-22T02:54:03;63.25;52.25;40.50
77239;PMS7003;66258;53.170;-2.240;2024-03-22T02:56:29;16.00;16.00;7.00
77239;PMS7003;66258;53.170;-2.240;2024-03-22T02:58:57;75.75;67.75;46.00
77239;PMS7003;66258;53.170;-2.240;2024-03-22T03:01:23;69.20;58.20;42.40
77239;PMS7003;66258;53.170;-2.240;2024-03-22T03:03:49;54.00;45.00;38.00
77239;PMS7003;66258;53.170;-2.240;2024-03-22T03:06:15;66.50;55.00;40.25
77239;PMS7003;66258;53.170;-2.240;2024-03-22T03:08:41;64.25;52.75;45.50
77239;PMS7003;66258;53.170;-2.240;2024-03-22T03:11:07;81.60;74.40;48.80
77239;PMS7003;66258;53.170;-2.240;2024-03-22T03:13:33;68.60;54.60;32.00
77239;PMS7003;66258;53.170;-2.240;2024-03-22T03:16:02;84.80;83.00;64.00
77239;PMS7003;66258;53.170;-2.240;2024-03-22T03:18:28;6.00;3.60;0.80
77239;PMS7003;66258;53.170;-2.240;2024-03-22T03:20:54;35.25;33.25;24.25
77239;PMS7003;66258;53.170;-2.240;2024-03-22T03:23:21;76.00;63.00;49.20
77239;PMS7003;66258;53.170;-2.240;2024-03-22T03:25:47;77.50;71.75;48.50
77239;PMS7003;66258;53.170;-2.240;2024-03-22T03:28:13;39.75;29.25;12.25
77239;PMS7003;66258;53.170;-2.240;2024-03-22T03:30:39;75.20;66.80;54.20
77239;PMS7003;66258;53.170;-2.240;2024-03-22T03:33:07;7.60;7.60;0.60
77239;PMS7003;66258;53.170;-2.240;2024-03-22T03:35:33;81.40;78.40;65.00
77239;PMS7003;66258;53.170;-2.240;2024-03-22T03:37:59;58.50;47.75;34.50
77239;PMS7003;66258;53.170;-2.240;2024-03-22T03:40:25;38.75;35.75;23.75
77239;PMS7003;66258;53.170;-2.240;2024-03-22T03:42:51;52.50;44.25;30.25
77239;PMS7003;66258;53.170;-2.240;2024-03-22T03:45:17;41.50;37.25;26.25
77239;PMS7003;66258;53.170;-2.240;2024-03-22T03:47:43;64.00;53.25;48.75
77239;PMS7003;66258;53.170;-2.240;2024-03-22T03:50:11;69.00;60.00;44.80
77239;PMS7003;66258;53.170;-2.240;2024-03-22T03:53:02;66.75;55.75;47.00
77239;PMS7003;66258;53.170;-2.240;2024-03-22T03:55:32;62.50;48.50;35.50
77239;PMS7003;66258;53.170;-2.240;2024-03-22T03:57:58;72.75;65.00;59.50
77239;PMS7003;66258;53.170;-2.240;2024-03-22T04:00:24;82.00;78.40;65.00
77239;PMS7003;66258;53.170;-2.240;2024-03-22T04:02:50;79.50;74.50;66.00
77239;PMS7003;66258;53.170;-2.240;2024-03-22T04:05:20;78.00;72.75;62.75
77239;PMS7003;66258;53.170;-2.240;2024-03-22T04:07:47;73.00;66.25;58.75
77239;PMS7003;66258;53.170;-2.240;2024-03-22T04:10:13;100.60;99.60;87.20
77239;PMS7003;66258;53.170;-2.240;2024-03-22T04:12:39;81.00;78.50;69.75
77239;PMS7003;66258;53.170;-2.240;2024-03-22T04:15:06;91.40;90.60;80.60
77239;PMS7003;66258;53.170;-2.240;2024-03-22T04:17:33;72.00;63.25;58.00
77239;PMS7003;66258;53.170;-2.240;2024-03-22T04:19:59;59.67;48.67;32.33
77239;PMS7003;66258;53.170;-2.240;2024-03-22T04:22:26;60.50;49.25;31.00
77239;PMS7003;66258;53.170;-2.240;2024-03-22T04:24:52;105.80;100.80;84.60
77239;PMS7003;66258;53.170;-2.240;2024-03-22T04:27:19;96.60;93.40;89.80
77239;PMS7003;66258;53.170;-2.240;2024-03-22T04:29:47;95.00;91.67;86.00
77239;PMS7003;66258;53.170;-2.240;2024-03-22T04:32:12;90.20;90.20;80.40
77239;PMS7003;66258;53.170;-2.240;2024-03-22T04:34:41;10.00;8.00;5.25
77239;PMS7003;66258;53.170;-2.240;2024-03-22T04:37:07;66.80;56.40;44.00
77239;PMS7003;66258;53.170;-2.240;2024-03-22T04:39:35;17.60;14.80;5.00
77239;PMS7003;66258;53.170;-2.240;2024-03-22T04:42:01;91.25;89.75;83.75
77239;PMS7003;66258;53.170;-2.240;2024-03-22T04:44:27;9.33;8.00;0.33
77239;PMS7003;66258;53.170;-2.240;2024-03-22T04:46:53;38.75;34.50;23.00
77239;PMS7003;66258;53.170;-2.240;2024-03-22T04:49:20;22.00;22.00;13.00
77239;PMS7003;66258;53.170;-2.240;2024-03-22T04:51:46;6.00;6.00;0.00
77239;PMS7003;66258;53.170;-2.240;2024-03-22T04:54:13;7.75;7.75;3.25
77239;PMS7003;66258;53.170;-2.240;2024-03-22T04:56:41;95.00;93.25;83.75
77239;PMS7003;66258;53.170;-2.240;2024-03-22T04:59:07;58.00;48.50;34.25
77239;PMS7003;66258;53.170;-2.240;2024-03-22T05:01:33;61.50;50.50;37.25
77239;PMS7003;66258;53.170;-2.240;2024-03-22T05:04:00;72.67;57.33;50.33
77239;PMS7003;66258;53.170;-2.240;2024-03-22T05:06:26;76.00;67.67;57.67
77239;PMS7003;66258;53.170;-2.240;2024-03-22T05:08:52;6.67;6.67;6.67
77239;PMS7003;66258;53.170;-2.240;2024-03-22T05:11:18;36.00;30.50;20.25
77239;PMS7003;66258;53.170;-2.240;2024-03-22T05:13:46;77.00;69.40;64.80
77239;PMS7003;66258;53.170;-2.240;2024-03-22T05:16:12;71.00;59.00;52.60
77239;PMS7003;66258;53.170;-2.240;2024-03-22T05:18:38;81.75;78.75;76.75
77239;PMS7003;66258;53.170;-2.240;2024-03-22T05:21:05;93.50;90.75;87.50
77239;PMS7003;66258;53.170;-2.240;2024-03-22T05:23:31;145.75;143.75;135.50
77239;PMS7003;66258;53.170;-2.240;2024-03-22T05:25:57;93.75;91.00;81.75
77239;PMS7003;66258;53.170;-2.240;2024-03-22T05:28:23;54.00;44.50;32.00
77239;PMS7003;66258;53.170;-2.240;2024-03-22T05:30:51;17.50;13.25;8.25
77239;PMS7003;66258;53.170;-2.240;2024-03-22T05:33:17;15.25;11.75;1.00
77239;PMS7003;66258;53.170;-2.240;2024-03-22T05:35:44;20.00;16.50;9.50
77239;PMS7003;66258;53.170;-2.240;2024-03-22T05:38:10;80.33;76.00;73.33
77239;PMS7003;66258;53.170;-2.240;2024-03-22T05:40:36;28.50;24.75;16.75
77239;PMS7003;66258;53.170;-2.240;2024-03-22T05:43:02;63.50;50.25;38.75
77239;PMS7003;66258;53.170;-2.240;2024-03-22T05:45:28;20.25;19.75;9.50
77239;PMS7003;66258;53.170;-2.240;2024-03-22T05:47:56;92.00;89.75;81.25
77239;PMS7003;66258;53.170;-2.240;2024-03-22T05:50:23;25.25;17.00;3.00
77239;PMS7003;66258;53.170;-2.240;2024-03-22T05:52:49;47.00;38.50;24.25
77239;PMS7003;66258;53.170;-2.240;2024-03-22T05:55:15;26.25;22.75;9.75
77239;PMS7003;66258;53.170;-2.240;2024-03-22T05:57:41;65.75;52.75;40.00
77239;PMS7003;66258;53.170;-2.240;2024-03-22T06:00:08;15.67;15.00;2.00
77239;PMS7003;66258;53.170;-2.240;2024-03-22T06:02:34;11.75;5.25;0.50
77239;PMS7003;66258;53.170;-2.240;2024-03-22T06:05:02;9.00;9.00;1.33
77239;PMS7003;66258;53.170;-2.240;2024-03-22T06:07:28;20.00;17.25;9.00
77239;PMS7003;66258;53.170;-2.240;2024-03-22T06:09:54;31.75;28.75;11.00
77239;PMS7003;66258;53.170;-2.240;2024-03-22T06:12:20;14.50;14.00;3.75
77239;PMS7003;66258;53.170;-2.240;2024-03-22T06:14:46;746.33;736.33;722.67
77239;PMS7003;66258;53.170;-2.240;2024-03-22T06:17:12;392.50;382.75;369.00
77239;PMS7003;66258;53.170;-2.240;2024-03-22T06:19:39;2.67;2.67;1.33
77239;PMS7003;66258;53.170;-2.240;2024-03-22T06:22:07;46.33;37.00;27.33
77239;PMS7003;66258;53.170;-2.240;2024-03-22T06:24:33;43.00;27.50;7.75
77239;PMS7003;66258;53.170;-2.240;2024-03-22T06:26:59;47.75;40.00;25.75
77239;PMS7003;66258;53.170;-2.240;2024-03-22T06:29:25;12.50;3.25;0.25
77239;PMS7003;66258;53.170;-2.240;2024-03-22T06:31:51;379.75;373.50;368.25
77239;PMS7003;66258;53.170;-2.240;2024-03-22T06:34:17;51.40;39.00;29.60
77239;PMS7003;66258;53.170;-2.240;2024-03-22T06:36:43;191.20;177.40;162.00
77239;PMS7003;66258;53.170;-2.240;2024-03-22T06:39:11;722.00;711.75;704.00
77239;PMS7003;66258;53.170;-2.240;2024-03-22T06:41:37;63.20;47.20;29.60
77239;PMS7003;66258;53.170;-2.240;2024-03-22T06:44:03;21.60;13.80;7.80
77239;PMS7003;66258;53.170;-2.240;2024-03-22T06:46:30;16.40;8.80;7.20
77239;PMS7003;66258;53.170;-2.240;2024-03-22T06:48:57;11.00;11.00;4.00
77239;PMS7003;66258;53.170;-2.240;2024-03-22T06:51:23;31.00;27.40;15.60
77239;PMS7003;66258;53.170;-2.240;2024-03-22T06:53:49;378.00;372.00;365.00
77239;PMS7003;66258;53.170;-2.240;2024-03-22T06:56:17;15.33;10.67;1.00
77239;PMS7003;66258;53.170;-2.240;2024-03-22T06:58:43;33.20;23.80;14.00
77239;PMS7003;66258;53.170;-2.240;2024-03-22T07:01:10;9.75;9.75;8.75
77239;PMS7003;66258;53.170;-2.240;2024-03-22T07:03:36;17.67;16.67;11.00
77239;PMS7003;66258;53.170;-2.240;2024-03-22T07:06:02;29.00;26.00;15.33
77239;PMS7003;66258;53.170;-2.240;2024-03-22T07:08:29;49.00;35.50;20.50
77239;PMS7003;66258;53.170;-2.240;2024-03-22T07:10:55;12.00;12.00;3.00
77239;PMS7003;66258;53.170;-2.240;2024-03-22T07:13:22;17.75;13.00;8.50
77239;PMS7003;66258;53.170;-2.240;2024-03-22T07:15:49;55.25;39.25;28.50
77239;PMS7003;66258;53.170;-2.240;2024-03-22T07:18:15;19.00;16.25;14.50
77239;PMS7003;66258;53.170;-2.240;2024-03-22T07:20:41;65.50;50.75;39.25
77239;PMS7003;66258;53.170;-2.240;2024-03-22T07:23:07;23.50;21.00;16.25
77239;PMS7003;66258;53.170;-2.240;2024-03-22T07:25:34;32.00;20.75;9.25
77239;PMS7003;66258;53.170;-2.240;2024-03-22T07:28:00;32.25;28.25;12.75
77239;PMS7003;66258;53.170;-2.240;2024-03-22T07:30:28;85.75;78.75;72.50
77239;PMS7003;66258;53.170;-2.240;2024-03-22T07:32:54;46.25;39.25;26.25
77239;PMS7003;66258;53.170;-2.240;2024-03-22T07:35:20;51.40;42.20;34.00
77239;PMS7003;66258;53.170;-2.240;2024-03-22T07:37:47;53.25;43.50;34.00
77239;PMS7003;66258;53.170;-2.240;2024-03-22T07:40:13;36.00;32.50;24.00
77239;PMS7003;66258;53.170;-2.240;2024-03-22T07:42:40;74.00;65.00;52.00
77239;PMS7003;66258;53.170;-2.240;2024-03-22T07:45:06;29.33;20.33;18.00
77239;PMS7003;66258;53.170;-2.240;2024-03-22T07:47:34;40.33;36.33;30.33
77239;PMS7003;66258;53.170;-2.240;2024-03-22T07:50:00;370.25;367.75;365.00
77239;PMS7003;66258;53.170;-2.240;2024-03-22T07:52:26;49.00;41.75;32.00
77239;PMS7003;66258;53.170;-2.240;2024-03-22T07:54:52;53.50;45.50;33.00
77239;PMS7003;66258;53.170;-2.240;2024-03-22T07:57:18;5.25;4.75;2.50
77239;PMS7003;66258;53.170;-2.240;2024-03-22T07:59:44;38.00;35.00;24.75
77239;PMS7003;66258;53.170;-2.240;2024-03-22T08:02:11;32.25;26.25;20.50
77239;PMS7003;66258;53.170;-2.240;2024-03-22T08:04:38;23.00;19.50;13.25
77239;PMS7003;66258;53.170;-2.240;2024-03-22T08:07:05;37.67;31.33;26.00
77239;PMS7003;66258;53.170;-2.240;2024-03-22T08:09:30;22.25;19.75;16.25
77239;PMS7003;66258;53.170;-2.240;2024-03-22T08:11:56;34.75;30.75;18.50
77239;PMS7003;66258;53.170;-2.240;2024-03-22T08:14:22;364.75;363.50;362.25
77239;PMS7003;66258;53.170;-2.240;2024-03-22T08:16:48;34.75;32.50;21.25
77239;PMS7003;66258;53.170;-2.240;2024-03-22T08:19:14;695.20;693.20;691.40
77239;PMS7003;66258;53.170;-2.240;2024-03-22T08:21:42;38.75;35.00;26.25
77239;PMS7003;66258;53.170;-2.240;2024-03-22T08:24:08;21.25;10.50;4.50
77239;PMS7003;66258;53.170;-2.240;2024-03-22T08:26:34;17.00;13.75;5.75
77239;PMS7003;66258;53.170;-2.240;2024-03-22T08:29:00;66.50;47.50;30.00
77239;PMS7003;66258;53.170;-2.240;2024-03-22T08:31:26;74.20;50.80;30.80
77239;PMS7003;66258;53.170;-2.240;2024-03-22T08:33:52;66.33;45.33;29.00
77239;PMS7003;66258;53.170;-2.240;2024-03-22T08:36:19;384.33;380.00;369.33
77239;PMS7003;66258;53.170;-2.240;2024-03-22T08:38:46;42.00;32.75;27.25
77239;PMS7003;66258;53.170;-2.240;2024-03-22T08:41:12;37.25;33.50;26.25
77239;PMS7003;66258;53.170;-2.240;2024-03-22T08:43:38;47.33;37.33;23.67
77239;PMS7003;66258;53.170;-2.240;2024-03-22T08:46:04;58.25;47.25;34.25
77239;PMS7003;66258;53.170;-2.240;2024-03-22T08:48:30;18.50;18.50;16.50
77239;PMS7003;66258;53.170;-2.240;2024-03-22T08:50:57;30.75;26.25;12.25
77239;PMS7003;66258;53.170;-2.240;2024-03-22T08:53:23;14.50;13.25;12.00
77239;PMS7003;66258;53.170;-2.240;2024-03-22T08:55:51;19.00;16.00;3.50
77239;PMS7003;66258;53.170;-2.240;2024-03-22T08:58:17;616.67;609.33;601.33
77239;PMS7003;66258;53.170;-2.240;2024-03-22T09:00:43;19.50;16.75;13.50
77239;PMS7003;66258;53.170;-2.240;2024-03-22T09:03:10;941.75;906.25;858.00
77239;PMS7003;66258;53.170;-2.240;2024-03-22T09:05:36;20.25;16.75;6.50
77239;PMS7003;66258;53.170;-2.240;2024-03-22T09:08:02;475.80;457.00;445.00
77239;PMS7003;66258;53.170;-2.240;2024-03-22T09:10:29;112.50;92.75;65.75
77239;PMS7003;66258;53.170;-2.240;2024-03-22T09:12:58;9.25;7.50;1.75
77239;PMS7003;66258;53.170;-2.240;2024-03-22T09:15:24;72.67;51.67;35.33
77239;PMS7003;66258;53.170;-2.240;2024-03-22T09:17:51;69.00;53.00;37.00
77239;PMS7003;66258;53.170;-2.240;2024-03-22T09:20:17;158.33;149.33;138.67
77239;PMS7003;66258;53.170;-2.240;2024-03-22T09:22:44;7.75;4.75;2.75
77239;PMS7003;66258;53.170;-2.240;2024-03-22T09:25:10;264.40;253.20;237.20
77239;PMS7003;66258;53.170;-2.240;2024-03-22T09:27:37;54.33;41.33;29.33
77239;PMS7003;66258;53.170;-2.240;2024-03-22T09:30:05;2.00;2.00;0.00
77239;PMS7003;66258;53.170;-2.240;2024-03-22T09:32:32;992.60;979.60;961.40
77239;PMS7003;66258;53.170;-2.240;2024-03-22T09:34:58;334.50;303.25;266.75
77239;PMS7003;66258;53.170;-2.240;2024-03-22T09:37:24;61.20;46.20;26.00
77239;PMS7003;66258;53.170;-2.240;2024-03-22T09:39:50;44.33;34.33;25.33
77239;PMS7003;66258;53.170;-2.240;2024-03-22T09:42:16;58.40;47.80;33.20
77239;PMS7003;66258;53.170;-2.240;2024-03-22T09:44:43;56.67;45.67;33.33
77239;PMS7003;66258;53.170;-2.240;2024-03-22T09:47:15;294.20;259.80;226.00
77239;PMS7003;66258;53.170;-2.240;2024-03-22T09:49:42;96.75;94.00;93.50
77239;PMS7003;66258;53.170;-2.240;2024-03-22T09:52:09;78.20;66.80;41.40
77239;PMS7003;66258;53.170;-2.240;2024-03-22T09:54:36;56.40;46.40;37.00
77239;PMS7003;66258;53.170;-2.240;2024-03-22T09:57:10;731.80;725.80;685.20
77239;PMS7003;66258;53.170;-2.240;2024-03-22T09:59:40;67.25;48.25;25.25
77239;PMS7003;66258;53.170;-2.240;2024-03-22T10:02:06;28.50;23.75;11.00
77239;PMS7003;66258;53.170;-2.240;2024-03-22T10:04:37;50.25;41.25;29.75
77239;PMS7003;66258;53.170;-2.240;2024-03-22T10:07:03;52.25;44.25;31.75
77239;PMS7003;66258;53.170;-2.240;2024-03-22T10:09:30;60.00;44.40;28.20
77239;PMS7003;66258;53.170;-2.240;2024-03-22T10:11:56;43.00;34.20;23.80
77239;PMS7003;66258;53.170;-2.240;2024-03-22T10:14:23;70.20;56.40;34.80
77239;PMS7003;66258;53.170;-2.240;2024-03-22T10:16:49;8.33;6.67;4.67
77239;PMS7003;66258;53.170;-2.240;2024-03-22T10:19:16;133.75;116.75;104.50
77239;PMS7003;66258;53.170;-2.240;2024-03-22T10:21:44;41.75;36.50;26.00
77239;PMS7003;66258;53.170;-2.240;2024-03-22T10:24:10;771.60;758.80;749.00
77239;PMS7003;66258;53.170;-2.240;2024-03-22T10:26:36;61.00;47.20;29.60
77239;PMS7003;66258;53.170;-2.240;2024-03-22T10:29:05;73.00;55.00;29.00
77239;PMS7003;66258;53.170;-2.240;2024-03-22T10:31:31;66.25;51.75;39.25
77239;PMS7003;66258;53.170;-2.240;2024-03-22T10:33:59;21.00;19.00;13.25
77239;PMS7003;66258;53.170;-2.240;2024-03-22T10:36:27;11.00;8.50;5.25
77239;PMS7003;66258;53.170;-2.240;2024-03-22T10:38:56;41.50;26.75;18.50
77239;PMS7003;66258;53.170;-2.240;2024-03-22T10:41:24;65.00;50.67;41.67
77239;PMS7003;66258;53.170;-2.240;2024-03-22T10:43:50;95.40;61.00;37.40
77239;PMS7003;66258;53.170;-2.240;2024-03-22T10:46:16;949.80;936.20;917.40
77239;PMS7003;66258;53.170;-2.240;2024-03-22T10:48:46;1565.00;1538.25;1518.75
77239;PMS7003;66258;53.170;-2.240;2024-03-22T10:51:12;561.20;536.80;520.80
77239;PMS7003;66258;53.170;-2.240;2024-03-22T10:53:41;423.00;402.00;379.75
77239;PMS7003;66258;53.170;-2.240;2024-03-22T10:56:09;3511.00;3511.00;3511.00
77239;PMS7003;66258;53.170;-2.240;2024-03-22T10:58:39;3511.00;3511.00;3511.00
77239;PMS7003;66258;53.170;-2.240;2024-03-22T11:01:06;57.00;35.25;16.00
77239;PMS7003;66258;53.170;-2.240;2024-03-22T11:03:47;83.80;78.80;53.60
77239;PMS7003;66258;53.170;-2.240;2024-03-22T11:06:13;3495.25;3495.25;3495.25
77239;PMS7003;66258;53.170;-2.240;2024-03-22T11:08:43;3348.25;3348.25;3345.25
77239;PMS7003;66258;53.170;-2.240;2024-03-22T11:11:11;41.00;33.75;9.25
77239;PMS7003;66258;53.170;-2.240;2024-03-22T11:13:38;3.00;0.75;0.00
77239;PMS7003;66258;53.170;-2.240;2024-03-22T11:16:05;16.50;8.50;0.75
77239;PMS7003;66258;53.170;-2.240;2024-03-22T11:18:31;3.00;0.25;0.00
77239;PMS7003;66258;53.170;-2.240;2024-03-22T11:20:57;14.00;6.75;3.25
77239;PMS7003;66258;53.170;-2.240;2024-03-22T11:23:25;3.50;0.75;0.00
77239;PMS7003;66258;53.170;-2.240;2024-03-22T11:25:51;3136.75;3136.75;3136.75
77239;PMS7003;66258;53.170;-2.240;2024-03-22T11:28:18;2163.50;2161.75;2159.25
77239;PMS7003;66258;53.170;-2.240;2024-03-22T11:30:45;10.25;2.75;0.00
77239;PMS7003;66258;53.170;-2.240;2024-03-22T11:33:11;0.00;0.00;0.00
77239;PMS7003;66258;53.170;-2.240;2024-03-22T11:35:38;6.00;1.00;0.50
77239;PMS7003;66258;53.170;-2.240;2024-03-22T11:38:04;26.67;9.33;2.00
77239;PMS7003;66258;53.170;-2.240;2024-03-22T11:40:30;3.25;3.25;1.75
77239;PMS7003;66258;53.170;-2.240;2024-03-22T11:42:58;1.25;1.25;0.75
77239;PMS7003;66258;53.170;-2.240;2024-03-22T11:45:26;10.00;9.00;5.25
77239;PMS7003;66258;53.170;-2.240;2024-03-22T11:47:54;5.50;5.50;2.75
77239;PMS7003;66258;53.170;-2.240;2024-03-22T11:50:21;43.75;35.25;19.75
77239;PMS7003;66258;53.170;-2.240;2024-03-22T11:52:47;10.75;3.00;0.50
77239;PMS7003;66258;53.170;-2.240;2024-03-22T11:55:14;4.00;4.00;1.00
77239;PMS7003;66258;53.170;-2.240;2024-03-22T11:57:41;3489.75;3489.75;3489.75
77239;PMS7003;66258;53.170;-2.240;2024-03-22T12:00:13;3217.50;3217.50;3217.50
77239;PMS7003;66258;53.170;-2.240;2024-03-22T12:02:41;3489.50;3489.50;3489.50
77239;PMS7003;66258;53.170;-2.240;2024-03-22T12:05:09;3499.00;3499.00;3499.00
77239;PMS7003;66258;53.170;-2.240;2024-03-22T12:07:35;10.50;9.00;7.00
77239;PMS7003;66258;53.170;-2.240;2024-03-22T12:10:02;0.00;0.00;0.00
77239;PMS7003;66258;53.170;-2.240;2024-03-22T12:12:29;3473.25;3473.25;3473.25
77239;PMS7003;66258;53.170;-2.240;2024-03-22T12:14:55;3143.33;3143.33;3143.33
77239;PMS7003;66258;53.170;-2.240;2024-03-22T12:17:22;3461.25;3461.25;3461.25
77239;PMS7003;66258;53.170;-2.240;2024-03-22T12:19:50;2739.25;2733.00;2732.00
77239;PMS7003;66258;53.170;-2.240;2024-03-22T12:22:16;3204.00;3203.25;3203.25
77239;PMS7003;66258;53.170;-2.240;2024-03-22T12:24:43;3221.80;3220.00;3219.40
77239;PMS7003;66258;53.170;-2.240;2024-03-22T12:27:09;2887.67;2882.33;2877.00
77239;PMS7003;66258;53.170;-2.240;2024-03-22T12:32:23;3494.75;3494.75;3494.75
77239;PMS7003;66258;53.170;-2.240;2024-03-22T12:34:48;3471.50;3471.50;3471.50
77239;PMS7003;66258;53.170;-2.240;2024-03-22T12:40:14;3448.50;3448.50;3448.50
77239;PMS7003;66258;53.170;-2.240;2024-03-22T12:42:39;3056.25;3045.25;3041.75
77239;PMS7003;66258;53.170;-2.240;2024-03-22T12:45:06;2169.00;2165.00;2161.00
77239;PMS7003;66258;53.170;-2.240;2024-03-22T12:47:32;2787.50;2782.50;2781.00
77239;PMS7003;66258;53.170;-2.240;2024-03-22T12:49:59;2839.50;2839.50;2837.50
77239;PMS7003;66258;53.170;-2.240;2024-03-22T12:52:26;49.75;36.75;24.00
77239;PMS7003;66258;53.170;-2.240;2024-03-22T12:54:52;3487.75;3487.75;3487.75
77239;PMS7003;66258;53.170;-2.240;2024-03-22T12:57:18;0.00;0.00;0.00
77239;PMS7003;66258;53.170;-2.240;2024-03-22T12:59:44;3487.50;3487.50;3487.50
77239;PMS7003;66258;53.170;-2.240;2024-03-22T13:02:10;1734.20;1717.00;1688.20
77239;PMS7003;66258;53.170;-2.240;2024-03-22T13:04:37;2779.75;2779.50;2778.50
77239;PMS7003;66258;53.170;-2.240;2024-03-22T13:07:05;3510.50;3510.50;3510.50
77239;PMS7003;66258;53.170;-2.240;2024-03-22T13:09:31;2607.60;2600.40;2597.60
77239;PMS7003;66258;53.170;-2.240;2024-03-22T13:11:56;1793.50;1782.50;1769.50
77239;PMS7003;66258;53.170;-2.240;2024-03-22T13:14:22;2464.80;2441.00;2379.60
77239;PMS7003;66258;53.170;-2.240;2024-03-22T13:16:49;3493.80;3493.80;3493.80
77239;PMS7003;66258;53.170;-2.240;2024-03-22T13:19:15;2803.75;2803.75;2802.75
77239;PMS7003;66258;53.170;-2.240;2024-03-22T13:21:41;3092.00;3075.40;3046.20
77239;PMS7003;66258;53.170;-2.240;2024-03-22T13:24:08;3433.00;3433.00;3433.00
77239;PMS7003;66258;53.170;-2.240;2024-03-22T13:26:35;2203.25;2181.50;2154.25
77239;PMS7003;66258;53.170;-2.240;2024-03-22T13:29:01;2926.00;2923.50;2919.00
77239;PMS7003;66258;53.170;-2.240;2024-03-22T13:31:28;3436.20;3436.20;3436.20